createdAt,value
2022-09-10T17:42:09.186Z,16.67
2022-09-10T17:44:39.671Z,12.27
2022-09-10T17:47:09.773Z,10.77
2022-09-10T17:49:39.224Z,10.30
2022-09-10T17:52:08.364Z,8.33
2022-09-10T17:54:37.275Z,8.10
2022-09-10T17:57:06.477Z,7.93
2022-09-10T17:59:35.308Z,8.20
2022-09-10T18:02:07.218Z,8.10
2022-09-10T18:04:36.234Z,8.17
2022-09-10T18:07:05.133Z,8.80
2022-09-10T18:09:33.981Z,8.60
2022-09-10T18:12:03.158Z,8.70
2022-09-10T18:14:32.294Z,9.00
2022-09-10T18:17:01.147Z,8.57
2022-09-10T18:19:33.291Z,9.33
2022-09-10T18:22:02.785Z,9.47
2022-09-10T18:24:34.960Z,8.97
2022-09-10T18:27:05.608Z,9.97
2022-09-10T18:29:35.163Z,10.73
2022-09-10T18:32:04.649Z,10.20
2022-09-10T18:34:35.005Z,10.83
2022-09-10T18:37:04.851Z,11.07
2022-09-10T18:39:34.385Z,11.23
2022-09-10T18:42:03.667Z,11.10
2022-09-10T18:44:36.701Z,10.23
2022-09-10T18:47:17.898Z,10.00
2022-09-10T18:49:59.463Z,10.27
2022-09-10T18:52:29.221Z,10.63
2022-09-10T18:54:58.502Z,9.30
2022-09-10T18:57:27.774Z,9.87
2022-09-10T18:59:57.906Z,9.70
2022-09-10T19:02:29.993Z,9.90
2022-09-10T19:05:18.058Z,10.07
2022-09-10T19:07:52.806Z,12.40
2022-09-10T19:10:24.879Z,12.27
2022-09-10T19:12:53.904Z,12.77
2022-09-10T19:15:23.153Z,12.27
2022-09-10T19:17:52.063Z,13.13
2022-09-10T19:20:23.202Z,12.63
2022-09-10T19:22:52.436Z,11.10
2022-09-10T19:25:22.969Z,10.07
2022-09-10T19:27:53.098Z,11.07
2022-09-10T19:30:22.008Z,9.90
2022-09-10T19:32:51.021Z,9.67
2022-09-10T19:35:21.644Z,9.93
2022-09-10T19:37:50.560Z,10.47
2022-09-10T19:40:19.435Z,16.47
2022-09-10T19:42:48.682Z,15.40
2022-09-10T19:45:18.020Z,11.80
2022-09-10T19:47:47.266Z,13.33
2022-09-10T19:50:18.343Z,16.23
2022-09-10T19:52:52.052Z,16.03
2022-09-10T19:55:21.366Z,26.23
2022-09-10T19:57:50.953Z,22.57
2022-09-10T20:00:42.953Z,21.63
2022-09-10T20:03:10.274Z,21.50
2022-09-10T20:05:39.798Z,18.07
2022-09-10T20:08:11.027Z,19.33
2022-09-10T20:10:52.136Z,23.33
2022-09-10T20:13:21.290Z,23.10
2022-09-10T20:15:50.456Z,27.23
2022-09-10T20:18:19.437Z,27.53
2022-09-10T20:20:48.216Z,27.47
2022-09-10T20:23:18.806Z,25.47
2022-09-10T20:25:47.771Z,23.10
2022-09-10T20:28:16.818Z,22.17
2022-09-10T20:30:45.975Z,21.93
2022-09-10T20:33:14.892Z,21.77
2022-09-10T20:35:46.787Z,23.43
2022-09-10T20:38:18.041Z,21.90
2022-09-10T20:40:47.455Z,23.93
2022-09-10T20:43:16.381Z,23.57
2022-09-10T20:45:46.315Z,22.30
2022-09-10T20:48:15.247Z,19.33
2022-09-10T20:50:53.551Z,18.33
2022-09-10T20:53:24.092Z,19.87
2022-09-10T20:55:53.386Z,18.60
2022-09-10T20:58:24.403Z,18.87
2022-09-10T21:00:53.509Z,16.33
2022-09-10T21:03:23.678Z,15.17
2022-09-10T21:05:52.677Z,16.20
2022-09-10T21:08:24.051Z,15.07
2022-09-10T21:10:53.272Z,14.13
2022-09-10T21:13:25.026Z,13.90
2022-09-10T21:15:58.429Z,12.87
2022-09-10T21:18:34.287Z,11.13
2022-09-10T21:21:11.801Z,11.57
2022-09-10T21:23:47.002Z,10.70
2022-09-10T21:26:17.633Z,11.17
2022-09-10T21:28:46.835Z,11.63
2022-09-10T21:31:16.352Z,12.90
2022-09-10T21:33:46.437Z,11.73
2022-09-10T21:36:16.948Z,13.43
2022-09-10T21:38:50.345Z,13.93
2022-09-10T21:41:39.688Z,19.60
2022-09-10T21:44:12.492Z,24.17
2022-09-10T21:46:41.934Z,24.93
2022-09-10T21:49:11.063Z,23.57
2022-09-10T21:51:40.093Z,23.13
2022-09-10T21:54:15.081Z,23.13
2022-09-10T21:56:43.974Z,19.80
2022-09-10T21:59:16.679Z,20.17
2022-09-10T22:01:47.233Z,20.87
2022-09-10T22:04:22.116Z,20.27
2022-09-10T22:06:52.077Z,20.00
2022-09-10T22:09:23.200Z,19.60
2022-09-10T22:11:54.478Z,20.07
2022-09-10T22:14:25.253Z,21.23
2022-09-10T22:16:55.225Z,21.23
2022-09-10T22:19:26.129Z,22.40
2022-09-10T22:22:13.901Z,23.27
2022-09-10T22:24:48.625Z,24.00
2022-09-10T22:27:18.058Z,24.37
2022-09-10T22:29:47.211Z,21.63
2022-09-10T22:32:16.063Z,20.93
2022-09-10T22:34:46.315Z,21.37
2022-09-10T22:37:15.425Z,20.80
2022-09-10T22:39:45.761Z,19.90
2022-09-10T22:42:15.386Z,19.27
2022-09-10T22:44:44.348Z,16.70
2022-09-10T22:47:13.223Z,14.37
2022-09-10T22:49:45.451Z,12.07
2022-09-10T22:52:15.237Z,12.10
2022-09-10T22:54:45.678Z,11.20
2022-09-10T22:57:14.586Z,10.97
2022-09-10T22:59:43.893Z,10.77
2022-09-10T23:02:12.870Z,11.07
2022-09-10T23:04:43.021Z,11.90
2022-09-10T23:07:12.733Z,11.43
2022-09-10T23:09:41.515Z,11.33
2022-09-10T23:12:12.293Z,11.67
2022-09-10T23:14:41.180Z,12.07
2022-09-10T23:17:10.173Z,14.97
2022-09-10T23:19:39.047Z,16.73
2022-09-10T23:22:26.720Z,16.37
2022-09-10T23:24:55.690Z,16.83
2022-09-10T23:27:26.148Z,25.70
2022-09-10T23:29:55.078Z,27.33
2022-09-10T23:32:23.826Z,28.17
2022-09-10T23:34:52.857Z,26.67
2022-09-10T23:37:21.867Z,28.47
2022-09-10T23:39:51.236Z,27.63
2022-09-10T23:42:20.494Z,25.30
2022-09-10T23:44:50.985Z,24.60
2022-09-10T23:47:20.037Z,23.63
2022-09-10T23:49:49.043Z,23.27
2022-09-10T23:52:17.939Z,23.90
2022-09-10T23:54:47.567Z,23.23
2022-09-10T23:57:17.670Z,23.60
2022-09-10T23:59:46.534Z,24.20
